Time;durP1;ratioP1;P1;durP2;ratioP2;P2;SDS_P1;SDS_P2;PMS_P1;PMS_P2;Temp;Humidity;BMP_temperature;BMP_pressure;BME280_temperature;BME280_humidity;BME280_pressure;Samples;Min_cycle;Max_cycle;Signal;HPM_P1;HPM_P2
2023/09/17 00:00:11;;;;;;;11.30;7.90;;;;;;;13.58;100.00;97825.09;6235672;28;20214;-92
2023/09/17 00:03:13;;;;;;;6.03;5.40;;;;;;;12.84;100.00;97716.16;6229521;28;20219;-93
2023/09/17 00:06:16;;;;;;;6.77;4.93;;;;;;;12.35;100.00;97642.25;6258798;28;20616;-93
2023/09/17 00:09:19;;;;;;;5.23;4.73;;;;;;;13.49;100.00;97823.94;6241888;28;20235;-93
2023/09/17 00:12:21;;;;;;;7.67;4.33;;;;;;;13.37;100.00;97806.22;6233278;28;20238;-94
2023/09/17 00:15:27;;;;;;;5.97;5.37;;;;;;;13.26;100.00;97790.34;6254287;28;20673;-92
2023/09/17 00:18:29;;;;;;;5.40;4.90;;;;;;;12.79;100.00;97719.59;6212645;28;20239;-93
2023/09/17 00:21:31;;;;;;;5.43;4.93;;;;;;;12.03;100.00;97596.84;6228028;28;20300;-92
2023/09/17 00:24:34;;;;;;;5.63;5.07;;;;;;;13.10;100.00;97779.50;6244281;28;20712;-93
2023/09/17 00:27:36;;;;;;;5.80;5.17;;;;;;;12.73;100.00;97714.47;6231308;28;20280;-93
2023/09/17 00:30:38;;;;;;;5.27;4.87;;;;;;;12.33;100.00;97648.94;6231910;28;20238;-94
2023/09/17 00:33:40;;;;;;;5.03;4.63;;;;;;;12.80;100.00;97736.44;6235623;28;20234;-92
2023/09/17 00:36:43;;;;;;;5.17;4.67;;;;;;;12.78;100.00;97755.41;6206754;28;20238;-93
2023/09/17 00:39:46;;;;;;;6.07;5.17;;;;;;;12.76;100.00;97724.63;6214076;28;20254;-93
2023/09/17 00:42:49;;;;;;;5.43;4.90;;;;;;;13.05;100.00;97770.59;6227449;28;20227;-94
2023/09/17 00:45:51;;;;;;;5.30;4.80;;;;;;;13.28;100.00;97815.78;6244029;28;20262;-93
2023/09/17 00:48:54;;;;;;;7.37;4.60;;;;;;;12.67;100.00;97724.31;6237843;28;20727;-92
2023/09/17 00:51:56;;;;;;;4.90;4.50;;;;;;;12.56;100.00;97709.22;6227141;28;20328;-92
2023/09/17 00:54:59;;;;;;;6.17;5.60;;;;;;;11.59;100.00;97578.22;6224752;28;20256;-92
2023/09/17 00:58:04;;;;;;;6.20;5.60;;;;;;;13.17;100.00;97804.16;6229281;28;20619;-93
2023/09/17 01:01:08;;;;;;;5.60;5.10;;;;;;;13.18;100.00;97815.66;6205738;28;20647;-95
2023/09/17 01:04:12;;;;;;;5.70;5.00;;;;;;;13.16;100.00;97807.91;6219478;28;20245;-94
2023/09/17 01:07:19;;;;;;;5.97;5.37;;;;;;;12.29;100.00;97672.66;6209252;28;20244;-94
2023/09/17 01:10:22;;;;;;;6.20;5.40;;;;;;;11.57;100.00;97622.22;6210338;28;20663;-94
2023/09/17 01:13:25;;;;;;;6.13;5.53;;;;;;;12.81;100.00;97762.94;6239787;28;20603;-94
2023/09/17 01:16:28;;;;;;;8.03;5.50;;;;;;;12.26;100.00;97678.50;6224148;28;20386;-94
2023/09/17 01:19:32;;;;;;;7.90;5.47;;;;;;;12.45;100.00;97710.22;6207361;28;20224;-94
2023/09/17 01:22:44;;;;;;;6.20;5.60;;;;;;;12.14;100.00;97678.66;6229826;28;20235;-94
2023/09/17 01:25:58;;;;;;;6.30;5.70;;;;;;;11.37;100.00;97580.91;6228757;28;20228;-94
2023/09/17 01:29:00;;;;;;;7.13;6.43;;;;;;;12.08;100.00;97674.34;6199463;28;20247;-95
2023/09/17 01:32:04;;;;;;;9.13;6.50;;;;;;;12.85;100.00;97780.06;6227235;28;20254;-95
2023/09/17 01:35:07;;;;;;;9.73;6.00;;;;;;;11.52;100.00;97574.94;6226908;28;20233;-94
2023/09/17 01:38:13;;;;;;;6.93;6.30;;;;;;;12.08;100.00;97681.53;6210532;28;20239;-94
2023/09/17 01:41:18;;;;;;;7.60;6.07;;;;;;;12.29;100.00;97699.38;6221937;28;20599;-94
2023/09/17 01:44:24;;;;;;;6.83;6.23;;;;;;;12.91;100.00;97795.13;6244922;28;20582;-94
2023/09/17 01:47:28;;;;;;;6.07;5.47;;;;;;;11.96;100.00;97659.50;6211701;28;20319;-93
2023/09/17 01:50:30;;;;;;;6.63;5.90;;;;;;;12.48;100.00;97742.56;6246830;28;20661;-94
2023/09/17 01:53:34;;;;;;;6.40;5.80;;;;;;;11.33;100.00;97557.66;6237657;28;20235;-95
2023/09/17 01:56:39;;;;;;;7.43;6.10;;;;;;;12.62;100.00;97753.69;6224280;28;20227;-95
2023/09/17 01:59:41;;;;;;;6.37;5.87;;;;;;;12.14;100.00;97680.53;6246632;28;20708;-94
2023/09/17 02:02:47;;;;;;;7.63;5.70;;;;;;;12.16;100.00;97694.41;6224850;28;20301;-95
2023/09/17 02:05:49;;;;;;;5.67;5.10;;;;;;;12.85;100.00;97789.97;6223425;28;20243;-95
2023/09/17 02:08:51;;;;;;;8.43;5.83;;;;;;;12.80;100.00;97805.94;6209579;28;20243;-96
2023/09/17 02:11:54;;;;;;;7.33;6.07;;;;;;;12.81;100.00;97791.53;6227403;28;20293;-93
2023/09/17 02:14:57;;;;;;;7.17;6.47;;;;;;;12.48;100.00;97755.13;6215788;28;20228;-94
2023/09/17 02:17:59;;;;;;;6.47;5.87;;;;;;;12.74;100.00;97790.94;6236123;28;20452;-94
2023/09/17 02:21:01;;;;;;;7.43;6.30;;;;;;;12.38;100.00;97729.91;6242292;28;20282;-92
2023/09/17 02:24:04;;;;;;;6.47;5.87;;;;;;;12.43;100.00;97742.53;6208496;28;20216;-91
2023/09/17 02:27:07;;;;;;;6.23;5.63;;;;;;;12.01;100.00;97675.56;6246994;28;20929;-91
2023/09/17 02:30:12;;;;;;;7.23;5.87;;;;;;;11.33;100.00;97571.00;6222897;28;20219;-92
2023/09/17 02:33:16;;;;;;;5.77;4.90;;;;;;;12.03;100.00;97721.53;6222315;28;20208;-92
2023/09/17 02:36:19;;;;;;;7.60;5.83;;;;;;;12.75;100.00;97784.50;6206152;28;20207;-92
2023/09/17 02:39:21;;;;;;;5.77;5.27;;;;;;;12.51;100.00;97771.47;6220242;28;20746;-91
2023/09/17 02:42:24;;;;;;;5.63;5.20;;;;;;;12.12;100.00;97710.16;6230370;28;20223;-92
2023/09/17 02:45:27;;;;;;;6.37;5.10;;;;;;;11.90;100.00;97679.19;6196609;28;20227;-91
2023/09/17 02:48:32;;;;;;;5.27;4.83;;;;;;;12.29;100.00;97738.63;6222856;28;20228;-91
2023/09/17 02:51:34;;;;;;;5.73;5.07;;;;;;;12.05;100.00;97704.19;6205197;28;20740;-92
2023/09/17 02:54:36;;;;;;;7.33;5.00;;;;;;;11.26;100.00;97594.38;6215802;28;20283;-92
2023/09/17 02:57:39;;;;;;;5.63;5.13;;;;;;;11.69;100.00;97654.13;6195110;28;20232;-91
2023/09/17 03:00:43;;;;;;;5.17;4.67;;;;;;;12.56;100.00;97789.41;6208478;28;20218;-92
2023/09/17 03:03:46;;;;;;;6.20;5.60;;;;;;;11.93;100.00;97705.41;6244591;28;20587;-92
2023/09/17 03:06:48;;;;;;;6.33;4.80;;;;;;;11.96;100.00;97721.72;6209784;28;20973;-92
2023/09/17 03:09:50;;;;;;;4.97;4.50;;;;;;;11.88;100.00;97708.81;6224898;28;20254;-92
2023/09/17 03:12:53;;;;;;;6.23;5.70;;;;;;;11.88;100.00;97703.47;6240950;28;20234;-91
2023/09/17 03:15:56;;;;;;;6.10;5.60;;;;;;;11.79;100.00;97702.25;6206873;28;20626;-92
2023/09/17 03:18:59;;;;;;;5.20;4.70;;;;;;;11.09;100.00;97618.44;6239267;28;20235;-91
2023/09/17 03:22:02;;;;;;;4.93;4.53;;;;;;;11.96;100.00;97740.41;6227256;28;20235;-92
2023/09/17 03:25:06;;;;;;;5.30;4.80;;;;;;;12.40;100.00;97829.31;6210684;28;20235;-92
2023/09/17 03:28:10;;;;;;;7.40;4.90;;;;;;;11.09;100.00;97613.09;6223357;28;20230;-93
2023/09/17 03:31:13;;;;;;;5.07;4.67;;;;;;;12.38;100.00;97842.13;6217273;28;20231;-93
2023/09/17 03:34:16;;;;;;;4.93;4.53;;;;;;;10.76;100.00;97574.00;6224766;28;20230;-92
2023/09/17 03:37:19;;;;;;;4.93;4.43;;;;;;;10.66;100.00;97564.00;6200599;28;20323;-92
2023/09/17 03:40:21;;;;;;;5.43;4.93;;;;;;;11.85;100.00;97773.38;6225926;28;20238;-93
2023/09/17 03:43:24;;;;;;;5.70;5.13;;;;;;;12.22;100.00;97824.31;6228933;28;20234;-95
2023/09/17 03:46:26;;;;;;;5.07;4.57;;;;;;;11.85;100.00;97776.84;6215034;28;20242;-94
2023/09/17 03:49:29;;;;;;;6.20;5.53;;;;;;;11.83;100.00;97783.50;6216569;28;20233;-92
2023/09/17 03:52:34;;;;;;;4.97;4.57;;;;;;;11.47;100.00;97708.25;6209036;28;20391;-91
2023/09/17 03:55:37;;;;;;;4.87;4.47;;;;;;;11.82;100.00;97781.84;6246076;28;20231;-92
2023/09/17 03:58:40;;;;;;;5.47;4.97;;;;;;;11.83;100.00;97791.50;6229564;28;20234;-91
2023/09/17 04:01:44;;;;;;;4.80;4.40;;;;;;;11.63;100.00;97760.78;6241955;28;20728;-92
2023/09/17 04:04:47;;;;;;;6.00;5.17;;;;;;;11.78;100.00;97764.72;6230778;28;20228;-91
2023/09/17 04:07:50;;;;;;;4.80;4.10;;;;;;;10.67;100.00;97608.22;6230772;28;20724;-92
2023/09/17 04:10:55;;;;;;;5.33;4.80;;;;;;;12.16;100.00;97827.16;6239430;28;20246;-91
2023/09/17 04:13:57;;;;;;;6.57;5.37;;;;;;;10.78;100.00;97635.84;6213822;28;20230;-91
2023/09/17 04:17:05;;;;;;;5.10;4.70;;;;;;;12.03;100.00;97834.47;6213852;28;20255;-91
2023/09/17 04:20:13;;;;;;;5.53;5.03;;;;;;;11.50;100.00;97771.00;6213194;28;20236;-91
2023/09/17 04:23:16;;;;;;;5.30;4.80;;;;;;;11.70;100.00;97797.16;6261614;28;20278;-92
2023/09/17 04:26:19;;;;;;;4.57;4.17;;;;;;;11.30;100.00;97750.97;6246320;28;20242;-91
2023/09/17 04:29:21;;;;;;;5.03;4.57;;;;;;;11.33;100.00;97758.50;6261149;28;20283;-92
2023/09/17 04:32:23;;;;;;;5.20;4.70;;;;;;;11.28;100.00;97761.09;6247885;28;20235;-91
2023/09/17 04:35:26;;;;;;;4.77;4.33;;;;;;;11.85;100.00;97853.44;6244309;28;20283;-91
2023/09/17 04:38:28;;;;;;;5.27;4.80;;;;;;;11.20;100.00;97766.81;6241696;28;20230;-92
2023/09/17 04:41:32;;;;;;;5.57;5.07;;;;;;;10.09;100.00;97594.22;6241822;28;20227;-93
2023/09/17 04:44:35;;;;;;;5.60;5.10;;;;;;;11.35;100.00;97803.59;6236554;28;20293;-93
2023/09/17 04:47:39;;;;;;;6.07;5.53;;;;;;;11.64;100.00;97852.31;6218192;28;20238;-93
2023/09/17 04:50:44;;;;;;;5.33;4.83;;;;;;;11.31;100.00;97802.44;6204730;28;20251;-93
2023/09/17 04:53:50;;;;;;;6.37;5.53;;;;;;;11.25;100.00;97801.56;6209876;28;20228;-93
2023/09/17 04:56:52;;;;;;;5.60;5.10;;;;;;;11.62;100.00;97873.91;6225884;28;20290;-92
2023/09/17 04:59:55;;;;;;;6.30;5.80;;;;;;;11.66;100.00;97862.75;6243980;28;20235;-93
2023/09/17 05:03:01;;;;;;;7.20;5.17;;;;;;;11.71;100.00;97874.28;6225532;28;20262;-92
2023/09/17 05:06:04;;;;;;;5.83;5.23;;;;;;;10.31;100.00;97690.22;6227636;28;20222;-92
2023/09/17 05:09:07;;;;;;;5.70;5.20;;;;;;;9.70;100.00;97549.91;6208723;28;20218;-92
2023/09/17 05:12:09;;;;;;;5.13;4.63;;;;;;;11.73;100.00;97879.41;6222557;28;20266;-91
2023/09/17 05:15:15;;;;;;;5.20;4.63;;;;;;;11.30;100.00;97814.97;6229709;28;20226;-91
2023/09/17 05:18:17;;;;;;;5.20;4.80;;;;;;;11.50;100.00;97859.03;6227194;28;20296;-91
2023/09/17 05:21:22;;;;;;;5.33;4.90;;;;;;;11.72;100.00;97883.91;6240709;28;20311;-91
2023/09/17 05:24:24;;;;;;;5.50;5.00;;;;;;;11.75;100.00;97901.31;6237917;28;20228;-92
2023/09/17 05:27:27;;;;;;;6.37;5.77;;;;;;;10.15;100.00;97664.34;6226638;28;20314;-91
2023/09/17 05:30:29;;;;;;;5.63;5.13;;;;;;;11.39;100.00;97858.06;6209524;28;20223;-92
2023/09/17 05:33:32;;;;;;;5.17;4.77;;;;;;;10.47;100.00;97715.25;6212174;28;20228;-91
2023/09/17 05:36:36;;;;;;;5.40;5.00;;;;;;;11.76;100.00;97905.59;6207855;28;20603;-91
2023/09/17 05:39:38;;;;;;;5.20;4.80;;;;;;;11.78;100.00;97900.84;6240686;28;20220;-91
2023/09/17 05:42:43;;;;;;;6.67;5.20;;;;;;;11.52;100.00;97863.06;6229334;28;20712;-90
2023/09/17 05:45:45;;;;;;;5.57;4.97;;;;;;;10.45;100.00;97706.72;6236675;28;20224;-91
2023/09/17 05:48:52;;;;;;;5.13;4.60;;;;;;;9.53;100.00;97557.88;6200811;28;20223;-91
2023/09/17 05:51:56;;;;;;;6.07;5.00;;;;;;;11.82;100.00;97915.31;6225774;28;20223;-92
2023/09/17 05:55:00;;;;;;;6.13;5.63;;;;;;;10.74;100.00;97760.75;6209820;28;20227;-91
2023/09/17 05:58:03;;;;;;;6.13;5.63;;;;;;;10.75;100.00;97757.03;6226282;28;20232;-91
2023/09/17 06:01:05;;;;;;;6.87;5.33;;;;;;;11.80;100.00;97926.22;6207320;28;20331;-91
2023/09/17 06:04:08;;;;;;;5.50;5.00;;;;;;;10.54;100.00;97731.91;6242931;28;20228;-91
2023/09/17 06:07:11;;;;;;;5.03;4.63;;;;;;;10.53;100.00;97764.09;6243038;28;20223;-94
2023/09/17 06:10:15;;;;;;;7.27;5.03;;;;;;;11.24;100.00;97825.81;6240507;28;20289;-93
2023/09/17 06:13:18;;;;;;;5.37;4.97;;;;;;;11.72;100.00;97901.78;6215236;28;20228;-95
2023/09/17 06:16:21;;;;;;;5.53;5.07;;;;;;;11.58;100.00;97872.78;6227012;28;20236;-94
2023/09/17 06:19:27;;;;;;;5.27;4.87;;;;;;;10.82;100.00;97746.22;6239482;28;20243;-95
2023/09/17 06:22:32;;;;;;;5.20;4.80;;;;;;;11.44;100.00;97849.34;6222008;28;20620;-94
2023/09/17 06:25:37;;;;;;;5.97;5.30;;;;;;;10.58;100.00;97743.69;6238450;28;20223;-95
2023/09/17 06:28:40;;;;;;;5.03;4.63;;;;;;;9.52;100.00;97556.25;6223800;28;20228;-94
2023/09/17 06:31:44;;;;;;;5.70;5.00;;;;;;;12.19;100.00;97950.31;6245735;28;20631;-90
2023/09/17 06:34:48;;;;;;;5.30;4.80;;;;;;;11.41;100.00;97841.81;6217223;28;20279;-92
2023/09/17 06:37:51;;;;;;;6.63;5.60;;;;;;;12.32;100.00;97944.66;6240163;28;20255;-92
2023/09/17 06:40:55;;;;;;;6.67;5.83;;;;;;;12.40;100.00;97943.41;6228703;28;20564;-89
2023/09/17 06:43:59;;;;;;;6.73;6.00;;;;;;;12.27;100.00;97909.03;6245883;28;20223;-90
2023/09/17 06:47:01;;;;;;;6.40;5.80;;;;;;;12.16;100.00;97875.22;6224837;28;20634;-90
2023/09/17 06:50:06;;;;;;;5.97;5.47;;;;;;;10.99;100.00;97695.59;6215157;28;20228;-89
2023/09/17 06:53:08;;;;;;;6.00;5.40;;;;;;;12.46;100.00;97882.81;6226312;28;20238;-89
2023/09/17 06:56:14;;;;;;;6.40;5.80;;;;;;;12.95;100.00;97942.47;6242438;28;20645;-88
2023/09/17 06:59:17;;;;;;;6.33;5.70;;;;;;;12.50;100.00;97874.06;6227520;28;20231;-89
2023/09/17 07:02:20;;;;;;;6.53;5.93;;;;;;;11.63;100.00;97725.28;6222031;28;20227;-90
2023/09/17 07:05:23;;;;;;;8.03;7.13;;;;;;;12.90;100.00;97863.00;6213531;28;20759;-89
2023/09/17 07:08:27;;;;;;;6.90;6.30;;;;;;;13.26;100.00;97898.16;6231130;28;20310;-89
2023/09/17 07:11:29;;;;;;;7.30;6.70;;;;;;;13.66;100.00;97979.88;6217658;28;20227;-90
2023/09/17 07:14:32;;;;;;;6.40;5.80;;;;;;;12.43;100.00;97734.50;6221868;28;20223;-89
2023/09/17 07:17:38;;;;;;;6.60;6.10;;;;;;;13.74;100.00;97925.84;6208480;28;20238;-90
2023/09/17 07:20:42;;;;;;;6.23;5.73;;;;;;;12.96;100.00;97783.66;6230743;28;20366;-90
2023/09/17 07:23:44;;;;;;;6.50;5.97;;;;;;;12.89;100.00;97759.78;6225410;28;20238;-90
2023/09/17 07:26:46;;;;;;;7.63;6.93;;;;;;;12.72;100.00;97683.47;6223770;28;20245;-90
2023/09/17 07:29:48;;;;;;;8.40;7.60;;;;;;;13.08;100.00;97740.69;6206747;28;20236;-89
2023/09/17 07:32:51;;;;;;;8.20;7.50;;;;;;;13.56;100.00;97750.41;6216862;28;20378;-90
2023/09/17 07:35:53;;;;;;;9.10;8.30;;;;;;;15.20;100.00;97951.03;6237721;28;20739;-89
2023/09/17 07:38:56;;;;;;;9.70;8.80;;;;;;;14.63;100.00;97855.41;6250404;28;20230;-90
2023/09/17 07:41:58;;;;;;;9.47;8.63;;;;;;;15.73;100.00;97970.50;6227245;28;20223;-90
2023/09/17 07:45:00;;;;;;;9.30;8.50;;;;;;;15.09;100.00;97843.97;6231515;28;20242;-90
2023/09/17 07:48:03;;;;;;;7.87;7.27;;;;;;;15.48;100.00;97846.94;6250096;28;20227;-90
2023/09/17 07:51:06;;;;;;;7.53;6.93;;;;;;;14.83;100.00;97717.06;6244680;28;20224;-89
2023/09/17 07:54:09;;;;;;;8.07;7.37;;;;;;;15.82;100.00;97843.72;6227268;28;20258;-90
2023/09/17 07:57:15;;;;;;;8.27;7.37;;;;;;;15.95;100.00;97853.88;6212477;28;20292;-90
2023/09/17 08:00:18;;;;;;;6.90;6.30;;;;;;;15.49;100.00;97736.56;6230776;28;20215;-91
2023/09/17 08:03:21;;;;;;;6.10;5.60;;;;;;;15.68;100.00;97754.81;6225748;28;20211;-90
2023/09/17 08:06:25;;;;;;;6.60;5.90;;;;;;;16.41;100.00;97848.38;6225266;28;20252;-89
2023/09/17 08:09:28;;;;;;;5.67;5.07;;;;;;;16.86;100.00;97851.94;6213676;28;20229;-90
2023/09/17 08:12:33;;;;;;;4.67;4.27;;;;;;;17.19;100.00;97894.28;6218161;28;20815;-90
2023/09/17 08:15:37;;;;;;;5.30;4.80;;;;;;;17.43;100.00;97925.88;6235494;28;20235;-90
2023/09/17 08:18:40;;;;;;;6.90;4.50;;;;;;;17.72;100.00;97904.38;6214878;28;20285;-90
2023/09/17 08:21:42;;;;;;;7.40;5.20;;;;;;;16.83;98.07;97767.19;6207296;28;20239;-93
2023/09/17 08:24:45;;;;;;;6.93;4.90;;;;;;;17.52;97.50;97848.78;6239192;28;20321;-93
2023/09/17 08:27:48;;;;;;;4.27;3.87;;;;;;;16.56;96.47;97680.75;6255175;28;20234;-94
2023/09/17 08:30:51;;;;;;;4.33;3.93;;;;;;;18.44;96.94;97959.28;6216358;28;20228;-93
2023/09/17 08:33:53;;;;;;;5.03;4.53;;;;;;;17.76;89.61;97841.59;6227197;28;20231;-94
2023/09/17 08:36:56;;;;;;;5.00;4.60;;;;;;;17.90;87.14;97816.66;6207613;28;20241;-94
2023/09/17 08:39:59;;;;;;;4.53;4.13;;;;;;;19.31;87.49;97993.38;6226114;28;20231;-92
2023/09/17 08:43:06;;;;;;;4.70;4.30;;;;;;;17.31;86.37;97699.25;6227629;28;20319;-93
2023/09/17 08:46:09;;;;;;;4.80;4.33;;;;;;;19.26;86.28;97944.81;6231116;28;20329;-94
2023/09/17 08:49:11;;;;;;;4.73;4.20;;;;;;;19.19;87.01;97928.97;6249478;28;20227;-93
2023/09/17 08:52:17;;;;;;;4.27;3.87;;;;;;;19.30;85.25;97941.22;6209642;28;20326;-93
2023/09/17 08:55:20;;;;;;;3.90;3.60;;;;;;;19.13;85.13;97910.44;6229213;28;20259;-92
2023/09/17 08:58:29;;;;;;;4.37;3.83;;;;;;;18.62;85.80;97833.63;6243716;28;20564;-94
2023/09/17 09:01:36;;;;;;;4.23;3.83;;;;;;;19.42;78.67;97927.31;6218203;28;20223;-96
2023/09/17 09:04:39;;;;;;;4.47;4.07;;;;;;;18.41;81.31;97752.13;6230844;28;20231;-94
2023/09/17 09:07:44;;;;;;;4.37;3.97;;;;;;;20.15;79.68;97985.38;6249406;28;20231;-94
2023/09/17 09:10:47;;;;;;;3.73;3.37;;;;;;;19.50;79.74;97872.56;6221575;28;20247;-93
2023/09/17 09:13:53;;;;;;;4.53;3.50;;;;;;;19.34;80.96;97844.22;6240358;28;20302;-92
2023/09/17 09:16:55;;;;;;;3.80;3.50;;;;;;;20.03;81.84;97956.09;6251265;28;20238;-86
2023/09/17 09:19:58;;;;;;;4.00;3.63;;;;;;;19.88;83.22;97923.91;6262478;28;20226;-89
2023/09/17 09:23:01;;;;;;;3.77;3.47;;;;;;;19.59;84.25;97872.72;6242114;28;20223;-89
2023/09/17 09:26:04;;;;;;;5.33;4.00;;;;;;;20.16;79.85;97959.94;6242944;28;20227;-90
2023/09/17 09:29:08;;;;;;;6.77;4.63;;;;;;;19.93;78.75;97904.88;6257256;28;20247;-88
2023/09/17 09:32:12;;;;;;;4.60;4.20;;;;;;;20.46;73.84;97952.38;6256722;28;20244;-94
2023/09/17 09:35:14;;;;;;;5.07;3.90;;;;;;;20.79;75.94;97986.41;6225701;28;20315;-93
2023/09/17 09:38:20;;;;;;;4.23;3.83;;;;;;;20.25;73.09;97884.31;6259333;28;20235;-92
2023/09/17 09:41:29;;;;;;;4.73;4.23;;;;;;;20.53;71.16;97920.31;6226322;28;20277;-93
2023/09/17 09:44:32;;;;;;;5.00;4.03;;;;;;;21.08;71.21;97993.41;6243779;28;20219;-92
2023/09/17 09:47:37;;;;;;;6.00;5.27;;;;;;;21.15;69.16;98001.94;6237595;28;20311;-89
2023/09/17 09:50:42;;;;;;;4.57;4.17;;;;;;;20.44;70.39;97859.84;6242177;28;20318;-94
2023/09/17 09:53:45;;;;;;;4.73;4.00;;;;;;;20.24;71.35;97807.72;6247100;28;20243;-91
2023/09/17 09:56:49;;;;;;;4.47;4.07;;;;;;;21.03;69.96;97921.22;6229313;28;20215;-89
2023/09/17 09:59:51;;;;;;;4.50;4.10;;;;;;;21.16;68.68;97949.38;6240643;28;20221;-91
2023/09/17 10:02:55;;;;;;;5.50;4.30;;;;;;;21.48;68.24;97986.38;6246723;28;20226;-90
2023/09/17 10:06:07;;;;;;;7.17;3.87;;;;;;;20.80;70.11;97871.59;6228279;28;20500;-90
2023/09/17 10:09:10;;;;;;;4.60;4.20;;;;;;;21.56;69.45;97949.59;6214607;28;20309;-90
2023/09/17 10:12:14;;;;;;;4.27;3.87;;;;;;;21.26;66.84;97872.47;6255757;28;20234;-92
2023/09/17 10:15:50;;;;;;;3.83;3.53;;;;;;;22.09;65.17;97970.56;6229379;28;20242;-90
2023/09/17 10:18:54;;;;;;;4.70;3.50;;;;;;;21.82;64.90;97917.22;6241655;28;20288;-90
2023/09/17 10:21:58;;;;;;;4.30;3.90;;;;;;;21.38;65.77;97860.00;6239134;28;20693;-90
2023/09/17 10:25:06;;;;;;;4.17;3.87;;;;;;;21.84;65.45;97942.16;6210210;28;20232;-90
2023/09/17 10:28:13;;;;;;;7.17;4.97;;;;;;;22.30;63.71;97968.16;6206645;28;20326;-89
2023/09/17 10:31:20;;;;;;;3.80;3.53;;;;;;;21.75;65.29;97870.78;6257352;28;20231;-89
2023/09/17 10:34:28;;;;;;;4.50;3.53;;;;;;;22.22;64.00;97945.28;6231256;28;20240;-89
2023/09/17 10:37:32;;;;;;;4.47;3.73;;;;;;;21.14;64.64;97767.34;6227649;28;20597;-88
2023/09/17 10:40:36;;;;;;;4.80;3.83;;;;;;;22.39;63.88;97941.84;6225464;28;20242;-91
2023/09/17 10:43:43;;;;;;;5.77;3.40;;;;;;;22.67;65.21;97966.91;6241102;28;20285;-90
2023/09/17 10:46:47;;;;;;;3.65;3.35;;;;;;;22.18;64.18;97898.19;6209150;28;20606;-91
2023/09/17 10:49:51;;;;;;;4.23;3.83;;;;;;;22.61;61.61;97943.69;6237195;28;20235;-92
2023/09/17 10:52:53;;;;;;;3.75;3.45;;;;;;;22.92;61.24;97973.56;6256373;28;21012;-94
2023/09/17 10:56:03;;;;;;;4.00;3.58;;;;;;;20.98;59.03;97663.19;6227021;28;21107;-94
2023/09/17 10:59:09;;;;;;;5.15;3.65;;;;;;;22.75;59.75;97947.09;6214402;28;20228;-91
2023/09/17 11:02:14;;;;;;;3.80;3.40;;;;;;;22.39;59.00;97895.72;6229243;28;20314;-90
2023/09/17 11:05:21;;;;;;;3.83;3.53;;;;;;;21.35;59.43;97735.16;6238812;28;20231;-90
2023/09/17 11:08:23;;;;;;;3.63;3.33;;;;;;;22.78;57.67;97904.94;6220264;28;20234;-90
2023/09/17 11:11:32;;;;;;;3.50;3.28;;;;;;;23.06;58.71;97951.72;6229438;28;20602;-91
2023/09/17 11:14:35;;;;;;;3.72;3.42;;;;;;;23.18;58.46;97970.91;6215573;28;20317;-90
2023/09/17 11:17:40;;;;;;;3.95;3.53;;;;;;;23.18;58.41;97968.19;6209897;28;20708;-90
2023/09/17 11:21:00;;;;;;;3.38;3.08;;;;;;;23.26;56.30;97969.34;6235093;28;20230;-91
2023/09/17 11:24:06;;;;;;;5.22;3.65;;;;;;;23.11;56.05;97941.50;6224279;28;20235;-89
2023/09/17 11:27:12;;;;;;;3.35;3.00;;;;;;;22.96;54.56;97886.81;6240305;28;20222;-90
2023/09/17 11:30:16;;;;;;;3.58;3.03;;;;;;;23.54;54.55;97970.63;6238876;28;20222;-90
2023/09/17 11:33:22;;;;;;;2.85;2.65;;;;;;;23.08;54.54;97892.41;6224755;28;20288;-89
2023/09/17 11:36:26;;;;;;;3.45;2.72;;;;;;;23.58;55.23;97947.13;6204954;28;20692;-90
2023/09/17 11:39:28;;;;;;;6.22;2.92;;;;;;;23.78;53.10;97966.66;6223563;28;20284;-87
2023/09/17 11:42:31;;;;;;;3.67;3.00;;;;;;;23.49;54.05;97924.56;6229395;28;20587;-89
2023/09/17 11:45:34;;;;;;;3.83;2.90;;;;;;;23.61;53.77;97889.38;6207141;28;20224;-89
2023/09/17 11:48:38;;;;;;;4.15;2.72;;;;;;;23.85;54.68;97918.03;6223984;28;20227;-86
2023/09/17 11:51:45;;;;;;;5.85;2.92;;;;;;;23.99;55.58;97937.69;6240037;28;20235;-89
2023/09/17 11:54:50;;;;;;;3.35;3.05;;;;;;;24.13;52.29;97938.28;6225328;28;20228;-91
2023/09/17 11:58:17;;;;;;;27.42;24.42;;;;;;;23.94;53.35;97900.56;6206287;28;20231;-86
2023/09/17 12:01:21;;;;;;;2.97;2.78;;;;;;;24.26;52.26;97932.97;6219780;28;20235;-82
2023/09/17 12:04:30;;;;;;;3.40;3.05;;;;;;;24.14;50.89;97926.28;6245946;28;20696;-85
2023/09/17 12:07:34;;;;;;;2.70;2.50;;;;;;;24.23;52.12;97933.59;6228442;28;20227;-86
2023/09/17 12:11:00;;;;;;;4.38;3.47;;;;;;;24.15;53.09;97914.25;6218423;28;20236;-85
2023/09/17 12:14:06;;;;;;;3.30;3.00;;;;;;;24.27;53.83;97891.00;6240755;28;20223;-86
2023/09/17 12:17:09;;;;;;;4.70;3.20;;;;;;;24.36;53.04;97908.94;6226689;28;20235;-86
2023/09/17 12:20:49;;;;;;;3.35;3.05;;;;;;;24.09;54.69;97873.94;6209992;28;20230;-91
2023/09/17 12:30:18;;;;;;;5.15;3.05;;;;;;;24.60;53.93;97929.34;6211325;28;20231;-89
2023/09/17 12:33:21;;;;;;;3.10;2.80;;;;;;;24.62;53.57;97927.88;6232264;28;20232;-86
2023/09/17 12:36:24;;;;;;;3.70;3.30;;;;;;;23.78;52.07;97801.50;6234671;28;20266;-90
2023/09/17 12:39:26;;;;;;;4.80;3.25;;;;;;;24.64;51.42;97903.84;6230542;28;20242;-91
2023/09/17 12:42:29;;;;;;;3.90;3.50;;;;;;;25.06;51.85;97925.72;6247341;28;20230;-88
2023/09/17 12:45:32;;;;;;;3.35;3.05;;;;;;;25.03;54.19;97928.34;6240316;28;20263;-93
2023/09/17 12:48:34;;;;;;;3.05;2.85;;;;;;;24.91;52.33;97899.84;6228899;28;20234;-88
2023/09/17 12:51:38;;;;;;;3.67;3.15;;;;;;;24.60;53.62;97878.38;6231585;28;20310;-90
2023/09/17 12:54:41;;;;;;;3.28;2.97;;;;;;;24.78;53.00;97917.25;6231401;28;20223;-92
2023/09/17 12:57:48;;;;;;;3.67;3.10;;;;;;;24.91;52.99;97931.75;6209181;28;20302;-88
2023/09/17 13:00:52;;;;;;;3.13;2.83;;;;;;;24.61;53.06;97895.53;6231840;28;20224;-85
2023/09/17 13:04:02;;;;;;;2.90;2.70;;;;;;;24.86;52.34;97921.84;6228577;28;20713;-86
2023/09/17 13:07:23;;;;;;;3.13;2.90;;;;;;;24.65;55.08;97889.09;6240266;28;20322;-87
2023/09/17 13:10:26;;;;;;;4.90;3.30;;;;;;;24.73;53.52;97881.19;6246614;28;20322;-88
2023/09/17 13:13:29;;;;;;;4.10;2.80;;;;;;;24.84;51.35;97887.88;6247767;28;20238;-89
2023/09/17 13:16:32;;;;;;;2.90;2.67;;;;;;;24.54;51.96;97852.47;6253785;28;20223;-88
2023/09/17 13:19:36;;;;;;;2.72;2.50;;;;;;;24.86;51.64;97907.41;6230233;28;20231;-89
2023/09/17 13:22:40;;;;;;;3.40;3.10;;;;;;;24.73;52.49;97897.53;6237623;28;20232;-89
2023/09/17 13:25:43;;;;;;;3.22;3.00;;;;;;;24.23;51.52;97819.25;6231392;28;20235;-89
2023/09/17 13:28:52;;;;;;;3.20;2.90;;;;;;;24.66;51.88;97865.38;6252257;28;20235;-86
2023/09/17 13:31:56;;;;;;;3.13;2.83;;;;;;;24.47;51.99;97859.53;6247798;28;20231;-87
2023/09/17 13:34:59;;;;;;;3.05;2.85;;;;;;;24.47;53.61;97845.94;6252628;28;20235;-88
2023/09/17 13:38:10;;;;;;;3.25;3.00;;;;;;;24.57;50.95;97826.47;6273363;28;20250;-88
2023/09/17 13:41:28;;;;;;;2.95;2.55;;;;;;;25.14;50.50;97867.66;6261196;28;20227;-88
2023/09/17 13:44:33;;;;;;;9.70;2.95;;;;;;;25.05;52.23;97877.78;6285024;28;20240;-88
2023/09/17 13:47:36;;;;;;;3.47;2.60;;;;;;;24.98;53.12;97874.81;6260111;28;20243;-85
2023/09/17 13:50:39;;;;;;;3.65;2.88;;;;;;;24.51;53.79;97830.53;6247704;28;20271;-86
2023/09/17 13:53:42;;;;;;;5.72;3.08;;;;;;;24.24;55.12;97799.09;6214318;28;20220;-86
2023/09/17 13:56:44;;;;;;;3.05;2.75;;;;;;;24.78;51.28;97851.84;6215751;28;20225;-91
2023/09/17 13:59:47;;;;;;;4.30;2.70;;;;;;;24.87;51.76;97860.75;6190898;28;20236;-91
2023/09/17 14:02:51;;;;;;;2.50;2.30;;;;;;;25.27;49.00;97860.34;6187486;28;20235;-92
2023/09/17 14:05:54;;;;;;;2.67;2.47;;;;;;;24.55;50.02;97793.34;6198978;28;20447;-91
2023/09/17 14:08:56;;;;;;;3.00;2.70;;;;;;;25.06;49.44;97873.13;6202196;28;20314;-91
2023/09/17 14:12:01;;;;;;;2.80;2.40;;;;;;;23.68;50.73;97653.06;6183091;28;20235;-91
2023/09/17 14:15:05;;;;;;;2.50;2.30;;;;;;;23.86;49.27;97672.81;6183197;28;20378;-91
2023/09/17 14:18:09;;;;;;;3.55;2.42;;;;;;;24.05;51.45;97739.63;6203482;28;20342;-91
2023/09/17 14:21:12;;;;;;;2.78;2.58;;;;;;;24.28;48.46;97724.56;6202623;28;20224;-90
2023/09/17 14:24:15;;;;;;;2.55;2.22;;;;;;;23.93;50.16;97686.69;6182120;28;20220;-90
2023/09/17 14:27:20;;;;;;;2.60;2.30;;;;;;;24.16;51.91;97777.03;6195488;28;20214;-91